createdAt,value
2022-11-15T00:00:36.100Z,80.15
2022-11-15T00:03:46.708Z,80.13
2022-11-15T00:06:52.520Z,80.55
2022-11-15T00:09:57.841Z,80.77
2022-11-15T00:13:03.311Z,80.34
2022-11-15T00:16:09.119Z,80.40
2022-11-15T00:19:14.649Z,80.28
2022-11-15T00:22:20.188Z,80.08
2022-11-15T00:25:26.004Z,80.25
2022-11-15T00:28:31.480Z,80.45
2022-11-15T00:31:36.554Z,80.23
2022-11-15T00:34:42.105Z,80.62
2022-11-15T00:37:47.475Z,80.47
2022-11-15T00:40:53.101Z,80.83
2022-11-15T00:43:58.606Z,80.49
2022-11-15T00:47:04.007Z,80.94
2022-11-15T00:50:14.130Z,81.12
2022-11-15T00:53:20.944Z,80.56
2022-11-15T00:56:26.741Z,80.76
2022-11-15T00:59:32.156Z,80.57
2022-11-15T01:02:37.698Z,80.24
2022-11-15T01:05:43.340Z,80.48
2022-11-15T01:08:48.633Z,80.33
2022-11-15T01:11:54.471Z,80.54
2022-11-15T01:15:00.187Z,80.33
2022-11-15T01:18:05.790Z,80.35
2022-11-15T01:21:11.204Z,80.28
2022-11-15T01:24:17.599Z,80.66
2022-11-15T01:27:22.815Z,80.67
2022-11-15T01:30:28.892Z,80.37
2022-11-15T01:33:34.315Z,80.45
2022-11-15T01:36:42.196Z,80.41
2022-11-15T01:39:47.711Z,80.90
2022-11-15T01:42:53.302Z,80.67
2022-11-15T01:45:58.632Z,80.80
2022-11-15T01:49:04.572Z,80.93
2022-11-15T01:52:10.055Z,80.85
2022-11-15T01:55:20.264Z,80.60
2022-11-15T01:58:26.643Z,80.34
2022-11-15T02:01:34.396Z,80.29
2022-11-15T02:05:12.039Z,80.14
2022-11-15T02:08:17.779Z,80.47
2022-11-15T02:11:28.233Z,80.07
2022-11-15T02:14:36.894Z,80.26
2022-11-15T02:17:53.513Z,80.69
2022-11-15T02:21:04.643Z,80.65
2022-11-15T02:24:18.939Z,80.03
2022-11-15T02:28:05.576Z,80.30
2022-11-15T02:31:25.798Z,80.51
2022-11-15T02:34:42.158Z,80.52
2022-11-15T02:37:55.473Z,80.34
2022-11-15T02:41:01.010Z,80.33
2022-11-15T02:44:21.726Z,80.02
2022-11-15T02:47:37.022Z,80.60
2022-11-15T02:50:46.732Z,80.71
2022-11-15T02:53:52.370Z,80.89
2022-11-15T02:56:57.637Z,80.46
2022-11-15T03:00:44.019Z,80.63
2022-11-15T03:04:01.042Z,80.32
2022-11-15T03:07:21.713Z,80.90
2022-11-15T03:10:33.262Z,80.70
2022-11-15T03:13:48.804Z,80.37
2022-11-15T03:17:02.945Z,80.16
2022-11-15T03:20:12.787Z,80.48
2022-11-15T03:23:24.495Z,80.66
2022-11-15T03:26:33.438Z,80.13
2022-11-15T03:29:43.939Z,80.27
2022-11-15T03:32:53.204Z,80.62
2022-11-15T03:36:02.307Z,80.07
2022-11-15T03:39:07.792Z,80.25
2022-11-15T03:42:28.740Z,80.39
2022-11-15T03:46:00.524Z,80.26
2022-11-15T03:49:14.711Z,80.38
2022-11-15T03:52:21.839Z,80.65
2022-11-15T03:55:30.185Z,80.39
2022-11-15T03:58:35.797Z,80.14
2022-11-15T04:01:41.340Z,80.16
2022-11-15T04:04:47.231Z,80.49
2022-11-15T04:07:52.852Z,80.48
2022-11-15T04:10:58.987Z,80.48
2022-11-15T04:14:04.224Z,80.29
2022-11-15T04:17:09.690Z,80.23
2022-11-15T04:20:13.115Z,80.55
2022-11-15T04:23:19.631Z,80.12
2022-11-15T04:26:32.102Z,80.16
2022-11-15T04:29:55.979Z,80.51
2022-11-15T04:33:01.134Z,80.40
2022-11-15T04:36:06.737Z,80.37
2022-11-15T04:39:12.214Z,80.57
2022-11-15T04:42:17.570Z,80.34
2022-11-15T04:45:22.851Z,80.44
2022-11-15T04:48:28.392Z,80.45
2022-11-15T04:51:33.732Z,80.51
2022-11-15T04:54:39.425Z,80.23
2022-11-15T04:57:44.757Z,80.24
2022-11-15T05:00:51.245Z,80.35
2022-11-15T05:03:55.920Z,80.45
2022-11-15T05:07:01.794Z,80.51
2022-11-15T05:10:07.523Z,80.50
2022-11-15T05:13:13.311Z,80.13
2022-11-15T05:16:18.907Z,80.49
2022-11-15T05:19:24.746Z,80.04
2022-11-15T05:22:30.049Z,80.29
2022-11-15T05:25:35.971Z,80.20
2022-11-15T05:28:41.320Z,79.92
2022-11-15T05:31:48.426Z,80.56
2022-11-15T05:34:53.988Z,80.17
2022-11-15T05:37:59.679Z,80.81
2022-11-15T05:41:05.295Z,80.30
2022-11-15T05:44:12.137Z,80.77
2022-11-15T05:47:18.231Z,80.33
2022-11-15T05:50:24.203Z,80.18
2022-11-15T05:53:32.040Z,80.31
2022-11-15T05:56:38.151Z,80.37
2022-11-15T05:59:44.138Z,80.23
2022-11-15T06:02:49.643Z,80.13
2022-11-15T06:05:55.228Z,80.45
2022-11-15T06:09:00.864Z,79.87
2022-11-15T06:12:06.304Z,80.19
2022-11-15T06:15:11.914Z,80.27
2022-11-15T06:18:17.979Z,80.13
2022-11-15T06:21:23.883Z,80.37
2022-11-15T06:24:28.997Z,80.48
2022-11-15T06:27:34.708Z,80.12
2022-11-15T06:30:41.145Z,80.46
2022-11-15T06:33:46.953Z,80.23
2022-11-15T06:36:54.760Z,80.58
2022-11-15T06:40:00.506Z,80.73
2022-11-15T06:43:05.798Z,80.16
2022-11-15T06:46:11.606Z,80.27
2022-11-15T06:49:16.998Z,80.00
2022-11-15T06:52:22.438Z,80.26
2022-11-15T06:55:28.634Z,80.73
2022-11-15T06:58:34.396Z,80.21
2022-11-15T07:01:39.651Z,80.34
2022-11-15T07:04:45.250Z,80.69
2022-11-15T07:07:50.780Z,79.77
2022-11-15T07:10:56.753Z,80.13
2022-11-15T07:14:02.246Z,80.26
2022-11-15T07:16:47.832Z,80.75
2022-11-15T07:19:33.601Z,80.78
2022-11-15T07:22:19.221Z,80.59
2022-11-15T07:25:04.873Z,80.53
2022-11-15T07:28:00.713Z,80.52
2022-11-15T07:30:46.329Z,80.72
2022-11-15T07:33:32.759Z,80.58
2022-11-15T07:36:18.629Z,80.81
2022-11-15T07:39:04.374Z,80.58
2022-11-15T07:41:50.506Z,80.34
2022-11-15T07:44:36.123Z,80.37
2022-11-15T07:47:41.523Z,80.71
2022-11-15T07:50:48.095Z,80.78
2022-11-15T07:53:53.495Z,80.28
2022-11-15T07:57:03.879Z,80.50
2022-11-15T08:00:12.428Z,80.43
2022-11-15T08:03:30.671Z,80.73
2022-11-15T08:06:36.518Z,80.41
2022-11-15T08:09:41.871Z,80.23
2022-11-15T08:12:47.659Z,80.21
2022-11-15T08:15:57.768Z,80.11
2022-11-15T08:19:03.627Z,80.38
2022-11-15T08:22:09.144Z,80.57
2022-11-15T08:25:14.970Z,80.18
2022-11-15T08:28:23.438Z,80.27
2022-11-15T08:31:35.385Z,80.35
2022-11-15T08:34:40.962Z,80.32
2022-11-15T08:37:46.929Z,80.64
2022-11-15T08:40:52.628Z,80.10
2022-11-15T08:43:58.364Z,80.12
2022-11-15T08:47:06.773Z,80.12
2022-11-15T08:50:12.382Z,80.62
2022-11-15T08:53:17.701Z,80.32
2022-11-15T08:56:23.632Z,80.61
2022-11-15T08:59:29.213Z,80.52
2022-11-15T09:02:35.451Z,80.20
2022-11-15T09:05:41.103Z,80.40
2022-11-15T09:08:50.168Z,80.49
2022-11-15T09:12:01.016Z,80.43
2022-11-15T09:15:08.162Z,80.35
2022-11-15T09:18:13.684Z,80.53
2022-11-15T09:21:20.582Z,80.22
2022-11-15T09:24:25.958Z,80.41
2022-11-15T09:27:31.496Z,80.48
2022-11-15T09:30:37.065Z,80.32
2022-11-15T09:33:43.104Z,80.61
2022-11-15T09:36:48.494Z,80.21
2022-11-15T09:39:54.167Z,81.09
2022-11-15T09:43:08.442Z,80.55
2022-11-15T09:46:51.311Z,80.28
2022-11-15T09:50:04.289Z,80.44
2022-11-15T09:52:57.595Z,79.96
2022-11-15T09:56:02.810Z,80.50
2022-11-15T09:59:18.870Z,80.39
2022-11-15T10:02:26.311Z,80.38
2022-11-15T10:05:15.514Z,79.78
2022-11-15T10:08:27.022Z,80.22
2022-11-15T10:14:39.777Z,80.65
2022-11-15T10:17:47.819Z,80.44
2022-11-15T10:21:02.454Z,80.41
2022-11-15T10:23:50.907Z,80.48
2022-11-15T10:26:38.487Z,80.21
2022-11-15T10:29:27.137Z,80.41
2022-11-15T10:32:14.474Z,80.22
2022-11-15T10:35:01.662Z,80.08
2022-11-15T10:37:51.021Z,80.63
2022-11-15T10:40:45.315Z,80.53
2022-11-15T10:43:36.681Z,80.01
2022-11-15T10:46:48.287Z,80.34
2022-11-15T10:49:36.574Z,80.47
2022-11-15T10:52:32.888Z,80.74
2022-11-15T10:55:48.162Z,80.42
2022-11-15T10:58:52.654Z,80.04
2022-11-15T11:01:53.027Z,80.70
2022-11-15T11:04:40.073Z,80.65
2022-11-15T11:07:42.146Z,80.70
2022-11-15T11:10:51.939Z,80.87
2022-11-15T11:13:48.040Z,80.88
2022-11-15T11:16:38.811Z,80.61
2022-11-15T11:19:44.353Z,80.55
2022-11-15T11:23:08.964Z,80.46
2022-11-15T11:26:04.015Z,80.31
2022-11-15T11:29:11.881Z,80.21
2022-11-15T11:32:16.915Z,80.59
2022-11-15T11:35:15.811Z,80.21
2022-11-15T11:38:15.704Z,80.92
2022-11-15T11:41:25.079Z,80.12
2022-11-15T11:44:51.080Z,81.02
2022-11-15T11:47:49.890Z,80.32
2022-11-15T11:50:40.931Z,80.56
2022-11-15T11:53:45.367Z,80.40
2022-11-15T11:56:23.760Z,80.97
2022-11-15T11:58:54.124Z,80.32
2022-11-15T12:01:26.271Z,80.93
2022-11-15T12:04:30.931Z,80.28
2022-11-15T12:07:28.561Z,80.57
2022-11-15T12:11:03.790Z,80.82
2022-11-15T12:13:52.551Z,80.89
2022-11-15T12:16:48.467Z,80.96
2022-11-15T12:19:35.278Z,80.26
2022-11-15T12:22:31.827Z,80.49
2022-11-15T12:25:25.139Z,80.98
2022-11-15T12:28:21.771Z,80.35
2022-11-15T12:31:14.603Z,81.10
2022-11-15T12:34:07.347Z,80.98
2022-11-15T12:37:03.956Z,80.59
2022-11-15T12:40:38.392Z,80.53
2022-11-15T12:43:34.013Z,80.33
2022-11-15T12:46:24.772Z,80.46
2022-11-15T12:49:15.320Z,80.59
2022-11-15T12:52:07.855Z,81.12
2022-11-15T12:54:57.506Z,81.00
2022-11-15T12:57:50.973Z,80.54
2022-11-15T13:00:40.741Z,80.76
2022-11-15T13:03:48.986Z,80.52
2022-11-15T13:06:59.338Z,81.14
2022-11-15T13:10:06.577Z,80.49
2022-11-15T13:12:53.504Z,81.19
2022-11-15T13:15:57.186Z,81.11
2022-11-15T13:18:55.529Z,80.44
2022-11-15T13:21:43.906Z,81.29
2022-11-15T13:24:36.930Z,81.03
2022-11-15T13:27:36.129Z,80.65
2022-11-15T13:30:24.995Z,81.52
2022-11-15T13:33:12.836Z,81.05
2022-11-15T13:36:01.868Z,80.73
2022-11-15T13:38:52.086Z,81.29
2022-11-15T13:41:44.649Z,81.33
2022-11-15T13:44:41.331Z,80.69
2022-11-15T13:47:35.406Z,81.16
2022-11-15T13:50:22.658Z,80.55
2022-11-15T13:53:09.866Z,80.64
2022-11-15T13:55:57.394Z,81.20
2022-11-15T13:58:44.337Z,80.81
2022-11-15T14:01:37.724Z,80.55
2022-11-15T14:04:24.971Z,80.64
2022-11-15T14:07:18.840Z,80.93
2022-11-15T14:10:06.020Z,80.60
2022-11-15T14:12:55.610Z,81.37
2022-11-15T14:16:00.370Z,81.33
2022-11-15T14:19:03.332Z,81.17
2022-11-15T14:21:50.346Z,80.89
2022-11-15T14:24:42.292Z,81.27
2022-11-15T14:27:46.249Z,80.89
2022-11-15T14:30:37.388Z,80.81
2022-11-15T14:33:38.398Z,80.97
2022-11-15T14:36:39.863Z,80.93
2022-11-15T14:39:27.115Z,80.53
2022-11-15T14:42:14.005Z,80.93
2022-11-15T14:45:01.143Z,81.03
2022-11-15T14:47:48.105Z,81.04
2022-11-15T14:50:37.436Z,80.60
2022-11-15T14:53:24.947Z,80.46
2022-11-15T14:56:12.351Z,80.87
2022-11-15T14:58:59.511Z,80.73
2022-11-15T15:01:47.349Z,81.08
2022-11-15T15:04:34.386Z,80.70
2022-11-15T15:07:21.549Z,80.39
2022-11-15T15:13:15.731Z,80.97
2022-11-15T15:16:02.656Z,80.57
2022-11-15T15:18:49.704Z,80.51
2022-11-15T15:21:40.130Z,81.04
2022-11-15T15:24:27.294Z,80.56
2022-11-15T15:27:14.163Z,80.85
2022-11-15T15:30:01.958Z,80.75
2022-11-15T15:32:48.762Z,80.79
2022-11-15T15:35:37.205Z,81.05
2022-11-15T15:38:24.380Z,80.65
2022-11-15T15:41:11.475Z,80.76
2022-11-15T15:43:58.655Z,80.72
2022-11-15T15:46:45.907Z,80.95
2022-11-15T15:49:32.723Z,80.70
2022-11-15T15:52:19.706Z,80.86
2022-11-15T15:55:06.504Z,80.70
2022-11-15T15:57:53.642Z,80.50
2022-11-15T16:00:41.799Z,80.76
2022-11-15T16:03:28.863Z,80.48
2022-11-15T16:06:15.668Z,80.51
2022-11-15T16:09:15.026Z,80.30
2022-11-15T16:12:05.062Z,80.34
2022-11-15T16:14:32.322Z,80.65
2022-11-15T16:16:59.222Z,80.62
2022-11-15T16:19:26.095Z,80.31
2022-11-15T16:21:53.194Z,80.29
2022-11-15T16:24:20.877Z,80.55
2022-11-15T16:27:09.418Z,80.42
2022-11-15T16:29:56.199Z,80.50
2022-11-15T16:32:24.190Z,80.18
2022-11-15T16:34:51.376Z,80.76
2022-11-15T16:37:23.708Z,80.21
2022-11-15T16:39:51.120Z,80.29
2022-11-15T16:42:38.008Z,80.10
2022-11-15T16:45:25.341Z,80.31
2022-11-15T16:48:13.430Z,80.15
2022-11-15T16:51:00.423Z,80.12
2022-11-15T16:53:48.119Z,80.06
2022-11-15T16:56:45.659Z,80.17
2022-11-15T16:59:38.592Z,79.84
2022-11-15T17:02:31.853Z,80.12
2022-11-15T17:05:20.265Z,79.95
2022-11-15T17:08:14.795Z,80.32
2022-11-15T17:11:02.159Z,79.85
2022-11-15T17:13:49.106Z,80.05
2022-11-15T17:16:18.704Z,79.26
2022-11-15T17:18:45.794Z,80.19
2022-11-15T17:21:15.959Z,80.05
2022-11-15T17:23:43.883Z,80.00
2022-11-15T17:26:29.007Z,79.86
2022-11-15T17:28:57.911Z,79.89
2022-11-15T17:31:25.529Z,80.05
2022-11-15T17:34:12.756Z,79.77
2022-11-15T17:36:59.646Z,79.73
2022-11-15T17:39:46.548Z,79.87
2022-11-15T17:42:33.527Z,79.86
2022-11-15T17:45:20.391Z,79.74
2022-11-15T17:48:07.613Z,79.71
2022-11-15T17:50:54.664Z,80.00
2022-11-15T17:53:41.452Z,79.82
2022-11-15T17:56:31.178Z,80.14
2022-11-15T17:59:21.583Z,79.83
2022-11-15T18:02:08.838Z,80.17
2022-11-15T18:04:55.671Z,79.70
2022-11-15T18:07:42.799Z,79.88
2022-11-15T18:10:29.709Z,79.58
2022-11-15T18:13:16.709Z,79.68
2022-11-15T18:16:14.386Z,79.69
2022-11-15T18:19:02.251Z,80.42
2022-11-15T18:21:51.807Z,80.04
2022-11-15T18:24:38.872Z,79.78
2022-11-15T18:27:26.836Z,79.49
2022-11-15T18:30:14.019Z,80.06
2022-11-15T18:33:00.882Z,79.54
2022-11-15T18:35:47.851Z,79.72
2022-11-15T18:38:34.883Z,79.73
2022-11-15T18:41:36.505Z,79.47
2022-11-15T18:44:23.430Z,79.97
2022-11-15T18:47:10.399Z,79.54
2022-11-15T18:49:57.280Z,79.69
2022-11-15T18:52:46.603Z,79.57
2022-11-15T18:55:33.518Z,79.24
2022-11-15T18:58:20.528Z,80.12
2022-11-15T19:01:07.477Z,79.42
2022-11-15T19:03:55.760Z,79.46
2022-11-15T19:06:48.031Z,79.86
2022-11-15T19:09:37.192Z,79.49
2022-11-15T19:12:24.646Z,79.83
2022-11-15T19:15:11.655Z,79.81
2022-11-15T19:17:58.481Z,79.35
2022-11-15T19:20:45.730Z,79.64
2022-11-15T19:23:32.929Z,79.80
2022-11-15T19:26:21.681Z,79.70
2022-11-15T19:29:16.796Z,79.53
2022-11-15T19:32:04.241Z,79.84
2022-11-15T19:34:51.108Z,79.39
2022-11-15T19:37:38.480Z,80.01
2022-11-15T19:40:25.895Z,79.93
2022-11-15T19:43:13.056Z,79.35
2022-11-15T19:46:02.593Z,79.30
2022-11-15T19:48:52.054Z,79.25
2022-11-15T19:51:43.822Z,79.22
2022-11-15T19:54:31.101Z,79.46
2022-11-15T19:57:17.900Z,79.65
2022-11-15T20:00:07.458Z,79.52
2022-11-15T20:02:54.590Z,79.13
2022-11-15T20:05:41.655Z,79.87
2022-11-15T20:08:28.621Z,79.35
2022-11-15T20:11:15.812Z,79.39
2022-11-15T20:14:02.980Z,79.39
2022-11-15T20:16:54.277Z,79.93
2022-11-15T20:19:41.522Z,79.15
2022-11-15T20:22:28.726Z,79.81
2022-11-15T20:25:15.611Z,79.17
2022-11-15T20:28:02.909Z,79.10
2022-11-15T20:30:49.913Z,79.90
2022-11-15T20:33:37.023Z,79.75
2022-11-15T20:36:30.613Z,79.19
2022-11-15T20:39:18.846Z,79.65
2022-11-15T20:42:05.796Z,79.47
2022-11-15T20:44:52.782Z,79.26
2022-11-15T20:47:39.600Z,79.32
2022-11-15T20:50:42.260Z,79.03
2022-11-15T20:53:32.534Z,78.91
2022-11-15T20:56:28.258Z,79.44
2022-11-15T20:59:15.164Z,79.55
2022-11-15T21:02:02.140Z,79.59
2022-11-15T21:04:49.220Z,79.58
2022-11-15T21:07:36.321Z,79.48
2022-11-15T21:10:22.248Z,79.80
2022-11-15T21:13:09.140Z,79.42
2022-11-15T21:15:55.954Z,78.76
2022-11-15T21:18:43.031Z,79.55
2022-11-15T21:21:29.959Z,79.50
2022-11-15T21:24:16.868Z,78.90
2022-11-15T21:27:03.779Z,79.44
2022-11-15T21:29:56.948Z,79.42
2022-11-15T21:32:43.979Z,78.83
2022-11-15T21:35:30.976Z,79.25
2022-11-15T21:38:17.898Z,79.92
2022-11-15T21:41:04.851Z,78.98
2022-11-15T21:43:52.163Z,78.88
2022-11-15T21:46:39.175Z,79.76
2022-11-15T21:49:26.723Z,79.58
2022-11-15T21:52:13.587Z,79.61
2022-11-15T21:55:00.488Z,78.98
2022-11-15T21:57:47.622Z,79.25
2022-11-15T22:00:34.045Z,79.17
2022-11-15T22:03:21.055Z,79.07
2022-11-15T22:06:10.670Z,79.21
2022-11-15T22:08:59.979Z,78.73
2022-11-15T22:11:46.950Z,78.78
2022-11-15T22:14:34.090Z,78.97
2022-11-15T22:17:21.378Z,79.71
2022-11-15T22:20:29.957Z,78.66
2022-11-15T22:23:15.375Z,79.56
2022-11-15T22:26:03.340Z,79.38
2022-11-15T22:28:50.323Z,79.34
2022-11-15T22:31:37.261Z,79.24
2022-11-15T22:34:24.227Z,79.27
2022-11-15T22:37:20.492Z,78.71
2022-11-15T22:40:09.640Z,78.42
2022-11-15T22:42:56.653Z,79.25
2022-11-15T22:45:43.762Z,78.86
2022-11-15T22:48:30.797Z,78.67
2022-11-15T22:51:18.528Z,78.95
2022-11-15T22:54:05.583Z,79.14
2022-11-15T22:56:52.496Z,78.71
2022-11-15T22:59:39.570Z,78.69
2022-11-15T23:02:26.589Z,78.67
2022-11-15T23:05:13.507Z,78.38
2022-11-15T23:08:00.679Z,78.52
2022-11-15T23:10:46.504Z,79.36
2022-11-15T23:13:36.693Z,78.30
2022-11-15T23:16:25.549Z,79.25
2022-11-15T23:19:18.173Z,78.79
2022-11-15T23:22:05.085Z,78.60
2022-11-15T23:24:53.198Z,79.60
2022-11-15T23:27:40.231Z,79.39
2022-11-15T23:30:27.919Z,79.05
2022-11-15T23:33:13.706Z,79.45
2022-11-15T23:36:00.861Z,79.02
2022-11-15T23:38:47.827Z,79.24
2022-11-15T23:41:34.919Z,79.41
2022-11-15T23:44:22.067Z,78.42
2022-11-15T23:47:09.062Z,79.45
2022-11-15T23:49:56.223Z,78.42
2022-11-15T23:52:43.243Z,78.95
2022-11-15T23:55:30.237Z,79.33
2022-11-15T23:58:17.443Z,79.55
